sensor_id;sensor_type;location;lat;lon;timestamp;P1;durP1;ratioP1;P2;durP2;ratioP2
17404;SDS011;8820;54.604;18.226;2024-01-30T00:01:53;40.07;;;24.83;;
17404;SDS011;8820;54.604;18.226;2024-01-30T00:04:22;43.47;;;25.70;;
17404;SDS011;8820;54.604;18.226;2024-01-30T00:06:50;41.67;;;24.73;;
17404;SDS011;8820;54.604;18.226;2024-01-30T00:09:20;42.47;;;25.53;;
17404;SDS011;8820;54.604;18.226;2024-01-30T00:11:48;40.27;;;23.77;;
17404;SDS011;8820;54.604;18.226;2024-01-30T00:14:17;43.20;;;26.30;;
17404;SDS011;8820;54.604;18.226;2024-01-30T00:16:46;39.00;;;23.87;;
17404;SDS011;8820;54.604;18.226;2024-01-30T00:19:15;29.77;;;20.07;;
17404;SDS011;8820;54.604;18.226;2024-01-30T00:21:44;44.07;;;25.40;;
17404;SDS011;8820;54.604;18.226;2024-01-30T00:24:12;39.60;;;23.13;;
17404;SDS011;8820;54.604;18.226;2024-01-30T00:26:40;34.13;;;19.80;;
17404;SDS011;8820;54.604;18.226;2024-01-30T00:29:09;36.10;;;22.03;;
17404;SDS011;8820;54.604;18.226;2024-01-30T00:31:37;42.80;;;24.27;;
17404;SDS011;8820;54.604;18.226;2024-01-30T00:34:07;34.67;;;21.93;;
17404;SDS011;8820;54.604;18.226;2024-01-30T00:36:37;38.63;;;23.03;;
17404;SDS011;8820;54.604;18.226;2024-01-30T00:39:05;31.47;;;20.67;;
17404;SDS011;8820;54.604;18.226;2024-01-30T00:41:35;33.13;;;20.90;;
17404;SDS011;8820;54.604;18.226;2024-01-30T00:44:04;31.23;;;20.00;;
17404;SDS011;8820;54.604;18.226;2024-01-30T00:46:32;47.53;;;26.70;;
17404;SDS011;8820;54.604;18.226;2024-01-30T00:49:00;42.57;;;24.17;;
17404;SDS011;8820;54.604;18.226;2024-01-30T00:51:29;50.63;;;27.40;;
17404;SDS011;8820;54.604;18.226;2024-01-30T00:53:58;41.87;;;23.27;;
17404;SDS011;8820;54.604;18.226;2024-01-30T00:56:27;40.13;;;25.27;;
17404;SDS011;8820;54.604;18.226;2024-01-30T00:58:56;38.30;;;21.10;;
17404;SDS011;8820;54.604;18.226;2024-01-30T01:01:24;66.60;;;35.33;;
17404;SDS011;8820;54.604;18.226;2024-01-30T01:03:52;56.73;;;32.73;;
17404;SDS011;8820;54.604;18.226;2024-01-30T01:06:21;66.17;;;33.37;;
17404;SDS011;8820;54.604;18.226;2024-01-30T01:08:49;52.20;;;30.00;;
17404;SDS011;8820;54.604;18.226;2024-01-30T01:11:19;53.07;;;29.67;;
17404;SDS011;8820;54.604;18.226;2024-01-30T01:13:47;45.50;;;25.53;;
17404;SDS011;8820;54.604;18.226;2024-01-30T01:16:15;38.43;;;23.40;;
17404;SDS011;8820;54.604;18.226;2024-01-30T01:18:44;47.07;;;25.50;;
17404;SDS011;8820;54.604;18.226;2024-01-30T01:21:12;35.60;;;20.93;;
17404;SDS011;8820;54.604;18.226;2024-01-30T01:23:40;37.60;;;22.27;;
17404;SDS011;8820;54.604;18.226;2024-01-30T01:26:09;36.33;;;20.67;;
17404;SDS011;8820;54.604;18.226;2024-01-30T01:28:40;45.80;;;25.00;;
17404;SDS011;8820;54.604;18.226;2024-01-30T01:31:08;43.80;;;23.07;;
17404;SDS011;8820;54.604;18.226;2024-01-30T01:33:37;40.00;;;23.07;;
17404;SDS011;8820;54.604;18.226;2024-01-30T01:36:06;37.60;;;20.43;;
17404;SDS011;8820;54.604;18.226;2024-01-30T01:38:34;33.30;;;20.87;;
17404;SDS011;8820;54.604;18.226;2024-01-30T01:41:02;37.07;;;20.87;;
17404;SDS011;8820;54.604;18.226;2024-01-30T01:43:31;30.50;;;19.10;;
17404;SDS011;8820;54.604;18.226;2024-01-30T01:46:01;38.20;;;21.53;;
17404;SDS011;8820;54.604;18.226;2024-01-30T01:48:29;36.83;;;21.33;;
17404;SDS011;8820;54.604;18.226;2024-01-30T01:50:58;31.00;;;19.07;;
17404;SDS011;8820;54.604;18.226;2024-01-30T01:53:27;33.63;;;20.20;;
17404;SDS011;8820;54.604;18.226;2024-01-30T01:55:56;31.63;;;18.70;;
17404;SDS011;8820;54.604;18.226;2024-01-30T01:58:25;29.40;;;18.07;;
17404;SDS011;8820;54.604;18.226;2024-01-30T02:00:56;32.43;;;19.47;;
17404;SDS011;8820;54.604;18.226;2024-01-30T02:03:27;32.27;;;18.23;;
17404;SDS011;8820;54.604;18.226;2024-01-30T02:05:55;28.37;;;17.83;;
17404;SDS011;8820;54.604;18.226;2024-01-30T02:08:24;31.80;;;18.67;;
17404;SDS011;8820;54.604;18.226;2024-01-30T02:10:53;32.30;;;18.63;;
17404;SDS011;8820;54.604;18.226;2024-01-30T02:13:22;29.43;;;16.63;;
17404;SDS011;8820;54.604;18.226;2024-01-30T02:15:50;25.57;;;15.90;;
17404;SDS011;8820;54.604;18.226;2024-01-30T02:18:19;29.53;;;16.50;;
17404;SDS011;8820;54.604;18.226;2024-01-30T02:20:49;24.13;;;16.03;;
17404;SDS011;8820;54.604;18.226;2024-01-30T02:23:22;28.40;;;17.07;;
17404;SDS011;8820;54.604;18.226;2024-01-30T02:25:52;27.00;;;17.43;;
17404;SDS011;8820;54.604;18.226;2024-01-30T02:28:20;26.67;;;17.17;;
17404;SDS011;8820;54.604;18.226;2024-01-30T02:30:48;28.33;;;18.00;;
17404;SDS011;8820;54.604;18.226;2024-01-30T02:33:17;33.53;;;18.33;;
17404;SDS011;8820;54.604;18.226;2024-01-30T02:35:45;36.90;;;20.10;;
17404;SDS011;8820;54.604;18.226;2024-01-30T02:38:14;40.70;;;22.80;;
17404;SDS011;8820;54.604;18.226;2024-01-30T02:40:45;40.10;;;24.37;;
17404;SDS011;8820;54.604;18.226;2024-01-30T02:43:13;41.83;;;24.83;;
17404;SDS011;8820;54.604;18.226;2024-01-30T02:45:41;40.03;;;24.00;;
17404;SDS011;8820;54.604;18.226;2024-01-30T02:48:10;36.77;;;22.27;;
17404;SDS011;8820;54.604;18.226;2024-01-30T02:50:38;41.07;;;23.60;;
17404;SDS011;8820;54.604;18.226;2024-01-30T02:53:06;33.60;;;20.40;;
17404;SDS011;8820;54.604;18.226;2024-01-30T02:55:34;34.77;;;21.00;;
17404;SDS011;8820;54.604;18.226;2024-01-30T02:58:04;33.83;;;18.90;;
17404;SDS011;8820;54.604;18.226;2024-01-30T03:00:33;34.20;;;18.23;;
17404;SDS011;8820;54.604;18.226;2024-01-30T03:03:02;31.07;;;18.50;;
17404;SDS011;8820;54.604;18.226;2024-01-30T03:05:30;32.23;;;20.73;;
17404;SDS011;8820;54.604;18.226;2024-01-30T03:07:59;41.53;;;23.63;;
17404;SDS011;8820;54.604;18.226;2024-01-30T03:10:27;35.00;;;19.90;;
17404;SDS011;8820;54.604;18.226;2024-01-30T03:12:56;37.83;;;21.33;;
17404;SDS011;8820;54.604;18.226;2024-01-30T03:15:25;29.10;;;18.50;;
17404;SDS011;8820;54.604;18.226;2024-01-30T03:17:54;30.23;;;18.03;;
17404;SDS011;8820;54.604;18.226;2024-01-30T03:20:22;27.90;;;17.57;;
17404;SDS011;8820;54.604;18.226;2024-01-30T03:22:50;25.37;;;17.70;;
17404;SDS011;8820;54.604;18.226;2024-01-30T03:25:19;29.47;;;16.63;;
17404;SDS011;8820;54.604;18.226;2024-01-30T03:27:47;25.97;;;17.20;;
17404;SDS011;8820;54.604;18.226;2024-01-30T03:30:16;30.53;;;17.23;;
17404;SDS011;8820;54.604;18.226;2024-01-30T03:32:46;30.70;;;18.27;;
17404;SDS011;8820;54.604;18.226;2024-01-30T03:35:14;28.23;;;18.70;;
17404;SDS011;8820;54.604;18.226;2024-01-30T03:37:42;33.93;;;20.47;;
17404;SDS011;8820;54.604;18.226;2024-01-30T03:40:11;41.00;;;22.43;;
17404;SDS011;8820;54.604;18.226;2024-01-30T03:42:40;34.57;;;22.53;;
17404;SDS011;8820;54.604;18.226;2024-01-30T03:45:08;35.43;;;22.30;;
17404;SDS011;8820;54.604;18.226;2024-01-30T03:47:37;35.27;;;21.03;;
17404;SDS011;8820;54.604;18.226;2024-01-30T03:50:07;35.40;;;20.63;;
17404;SDS011;8820;54.604;18.226;2024-01-30T03:52:35;33.47;;;20.27;;
17404;SDS011;8820;54.604;18.226;2024-01-30T03:55:04;31.17;;;20.73;;
17404;SDS011;8820;54.604;18.226;2024-01-30T03:57:33;31.33;;;20.53;;
17404;SDS011;8820;54.604;18.226;2024-01-30T04:00:01;31.13;;;19.37;;
17404;SDS011;8820;54.604;18.226;2024-01-30T04:02:37;32.17;;;19.63;;
17404;SDS011;8820;54.604;18.226;2024-01-30T04:05:07;28.10;;;18.60;;
17404;SDS011;8820;54.604;18.226;2024-01-30T04:07:36;30.97;;;19.43;;
17404;SDS011;8820;54.604;18.226;2024-01-30T04:10:04;28.73;;;19.00;;
17404;SDS011;8820;54.604;18.226;2024-01-30T04:12:34;30.47;;;18.67;;
17404;SDS011;8820;54.604;18.226;2024-01-30T04:15:02;36.33;;;22.73;;
17404;SDS011;8820;54.604;18.226;2024-01-30T04:17:31;32.17;;;19.57;;
17404;SDS011;8820;54.604;18.226;2024-01-30T04:19:59;29.33;;;20.73;;
17404;SDS011;8820;54.604;18.226;2024-01-30T04:22:29;33.80;;;22.17;;
17404;SDS011;8820;54.604;18.226;2024-01-30T04:24:59;40.80;;;23.70;;
17404;SDS011;8820;54.604;18.226;2024-01-30T04:27:27;36.43;;;23.27;;
17404;SDS011;8820;54.604;18.226;2024-01-30T04:29:55;42.63;;;22.33;;
17404;SDS011;8820;54.604;18.226;2024-01-30T04:32:23;37.97;;;22.47;;
17404;SDS011;8820;54.604;18.226;2024-01-30T04:34:52;33.30;;;20.47;;
17404;SDS011;8820;54.604;18.226;2024-01-30T04:37:20;36.87;;;21.77;;
17404;SDS011;8820;54.604;18.226;2024-01-30T04:39:50;33.37;;;21.67;;
17404;SDS011;8820;54.604;18.226;2024-01-30T04:42:18;36.47;;;23.23;;
17404;SDS011;8820;54.604;18.226;2024-01-30T04:44:47;35.83;;;21.00;;
17404;SDS011;8820;54.604;18.226;2024-01-30T04:47:15;41.27;;;21.37;;
17404;SDS011;8820;54.604;18.226;2024-01-30T04:49:43;31.93;;;19.80;;
17404;SDS011;8820;54.604;18.226;2024-01-30T04:52:12;36.37;;;21.03;;
17404;SDS011;8820;54.604;18.226;2024-01-30T04:54:40;34.90;;;20.83;;
17404;SDS011;8820;54.604;18.226;2024-01-30T04:57:10;34.00;;;20.50;;
17404;SDS011;8820;54.604;18.226;2024-01-30T04:59:39;37.70;;;20.80;;
17404;SDS011;8820;54.604;18.226;2024-01-30T05:02:07;31.87;;;20.10;;
17404;SDS011;8820;54.604;18.226;2024-01-30T05:04:35;34.70;;;20.87;;
17404;SDS011;8820;54.604;18.226;2024-01-30T05:07:04;34.23;;;21.10;;
17404;SDS011;8820;54.604;18.226;2024-01-30T05:09:32;34.33;;;22.13;;
17404;SDS011;8820;54.604;18.226;2024-01-30T05:12:01;33.80;;;20.27;;
17404;SDS011;8820;54.604;18.226;2024-01-30T05:14:30;33.50;;;20.30;;
17404;SDS011;8820;54.604;18.226;2024-01-30T05:16:59;29.97;;;20.30;;
17404;SDS011;8820;54.604;18.226;2024-01-30T05:19:27;31.67;;;20.00;;
17404;SDS011;8820;54.604;18.226;2024-01-30T05:21:55;36.20;;;21.13;;
17404;SDS011;8820;54.604;18.226;2024-01-30T05:24:24;35.17;;;21.43;;
17404;SDS011;8820;54.604;18.226;2024-01-30T05:26:53;88.23;;;44.70;;
17404;SDS011;8820;54.604;18.226;2024-01-30T05:29:21;43.93;;;25.47;;
17404;SDS011;8820;54.604;18.226;2024-01-30T05:31:51;40.67;;;22.97;;
17404;SDS011;8820;54.604;18.226;2024-01-30T05:34:19;33.50;;;21.53;;
17404;SDS011;8820;54.604;18.226;2024-01-30T05:36:48;34.27;;;22.13;;
17404;SDS011;8820;54.604;18.226;2024-01-30T05:39:16;35.50;;;22.20;;
17404;SDS011;8820;54.604;18.226;2024-01-30T05:41:44;35.70;;;22.03;;
17404;SDS011;8820;54.604;18.226;2024-01-30T05:44:13;38.37;;;21.77;;
17404;SDS011;8820;54.604;18.226;2024-01-30T05:46:41;37.47;;;22.27;;
17404;SDS011;8820;54.604;18.226;2024-01-30T05:49:11;36.90;;;22.87;;
17404;SDS011;8820;54.604;18.226;2024-01-30T05:51:39;40.67;;;23.10;;
17404;SDS011;8820;54.604;18.226;2024-01-30T05:54:08;37.17;;;22.00;;
17404;SDS011;8820;54.604;18.226;2024-01-30T05:56:37;35.07;;;21.43;;
17404;SDS011;8820;54.604;18.226;2024-01-30T05:59:05;34.47;;;22.00;;
17404;SDS011;8820;54.604;18.226;2024-01-30T06:01:33;34.33;;;21.90;;
17404;SDS011;8820;54.604;18.226;2024-01-30T06:04:01;34.23;;;22.07;;
17404;SDS011;8820;54.604;18.226;2024-01-30T06:06:31;31.60;;;21.30;;
17404;SDS011;8820;54.604;18.226;2024-01-30T06:08:59;38.87;;;22.03;;
17404;SDS011;8820;54.604;18.226;2024-01-30T06:11:27;41.63;;;22.57;;
17404;SDS011;8820;54.604;18.226;2024-01-30T06:13:56;34.60;;;21.70;;
17404;SDS011;8820;54.604;18.226;2024-01-30T06:16:24;31.30;;;20.80;;
17404;SDS011;8820;54.604;18.226;2024-01-30T06:18:56;37.10;;;22.40;;
17404;SDS011;8820;54.604;18.226;2024-01-30T06:21:25;41.23;;;23.33;;
17404;SDS011;8820;54.604;18.226;2024-01-30T06:23:55;37.13;;;22.40;;
17404;SDS011;8820;54.604;18.226;2024-01-30T06:26:23;42.77;;;24.23;;
17404;SDS011;8820;54.604;18.226;2024-01-30T06:28:52;38.83;;;23.93;;
17404;SDS011;8820;54.604;18.226;2024-01-30T06:31:20;38.30;;;24.03;;
17404;SDS011;8820;54.604;18.226;2024-01-30T06:33:48;39.97;;;22.40;;
17404;SDS011;8820;54.604;18.226;2024-01-30T06:36:17;32.57;;;21.57;;
17404;SDS011;8820;54.604;18.226;2024-01-30T06:38:45;39.17;;;23.40;;
17404;SDS011;8820;54.604;18.226;2024-01-30T06:41:15;37.50;;;21.90;;
17404;SDS011;8820;54.604;18.226;2024-01-30T06:43:43;37.27;;;23.00;;
17404;SDS011;8820;54.604;18.226;2024-01-30T06:46:12;31.67;;;21.00;;
17404;SDS011;8820;54.604;18.226;2024-01-30T06:48:40;40.20;;;23.43;;
17404;SDS011;8820;54.604;18.226;2024-01-30T06:51:11;37.33;;;20.90;;
17404;SDS011;8820;54.604;18.226;2024-01-30T06:53:42;44.87;;;23.13;;
17404;SDS011;8820;54.604;18.226;2024-01-30T06:56:10;45.03;;;23.17;;
17404;SDS011;8820;54.604;18.226;2024-01-30T06:58:40;49.50;;;23.00;;
17404;SDS011;8820;54.604;18.226;2024-01-30T07:01:08;38.23;;;21.77;;
17404;SDS011;8820;54.604;18.226;2024-01-30T07:03:38;57.70;;;23.97;;
17404;SDS011;8820;54.604;18.226;2024-01-30T07:06:06;66.23;;;23.13;;
17404;SDS011;8820;54.604;18.226;2024-01-30T07:08:35;53.90;;;22.87;;
17404;SDS011;8820;54.604;18.226;2024-01-30T07:11:03;83.17;;;25.67;;
17404;SDS011;8820;54.604;18.226;2024-01-30T07:13:32;36.40;;;22.73;;
17404;SDS011;8820;54.604;18.226;2024-01-30T07:16:03;66.50;;;24.00;;
17404;SDS011;8820;54.604;18.226;2024-01-30T07:18:32;42.60;;;21.60;;
17404;SDS011;8820;54.604;18.226;2024-01-30T07:21:00;63.03;;;23.80;;
17404;SDS011;8820;54.604;18.226;2024-01-30T07:23:28;36.37;;;23.40;;
17404;SDS011;8820;54.604;18.226;2024-01-30T07:25:57;37.13;;;24.57;;
17404;SDS011;8820;54.604;18.226;2024-01-30T07:28:25;39.47;;;24.80;;
17404;SDS011;8820;54.604;18.226;2024-01-30T07:30:53;45.37;;;28.33;;
17404;SDS011;8820;54.604;18.226;2024-01-30T07:33:23;65.57;;;34.40;;
17404;SDS011;8820;54.604;18.226;2024-01-30T07:35:52;76.30;;;41.77;;
17404;SDS011;8820;54.604;18.226;2024-01-30T07:38:21;81.23;;;43.40;;
17404;SDS011;8820;54.604;18.226;2024-01-30T07:40:49;73.40;;;43.17;;
17404;SDS011;8820;54.604;18.226;2024-01-30T07:43:17;80.13;;;43.27;;
17404;SDS011;8820;54.604;18.226;2024-01-30T07:45:47;79.13;;;40.43;;
17404;SDS011;8820;54.604;18.226;2024-01-30T07:48:15;75.63;;;40.50;;
17404;SDS011;8820;54.604;18.226;2024-01-30T07:50:45;72.50;;;41.00;;
17404;SDS011;8820;54.604;18.226;2024-01-30T07:53:13;72.20;;;38.30;;
17404;SDS011;8820;54.604;18.226;2024-01-30T07:55:41;70.13;;;39.87;;
17404;SDS011;8820;54.604;18.226;2024-01-30T07:58:13;72.43;;;39.73;;
17404;SDS011;8820;54.604;18.226;2024-01-30T08:00:41;85.00;;;46.13;;
17404;SDS011;8820;54.604;18.226;2024-01-30T08:03:10;89.73;;;47.47;;
17404;SDS011;8820;54.604;18.226;2024-01-30T08:05:39;96.80;;;51.17;;
17404;SDS011;8820;54.604;18.226;2024-01-30T08:08:08;108.23;;;55.80;;
17404;SDS011;8820;54.604;18.226;2024-01-30T08:10:37;111.10;;;51.77;;
17404;SDS011;8820;54.604;18.226;2024-01-30T08:13:07;109.93;;;57.33;;
17404;SDS011;8820;54.604;18.226;2024-01-30T08:15:35;162.13;;;63.50;;
17404;SDS011;8820;54.604;18.226;2024-01-30T08:18:04;217.40;;;76.57;;
17404;SDS011;8820;54.604;18.226;2024-01-30T08:20:33;196.40;;;74.20;;
17404;SDS011;8820;54.604;18.226;2024-01-30T08:23:02;139.97;;;61.53;;
17404;SDS011;8820;54.604;18.226;2024-01-30T08:25:31;108.17;;;53.50;;
17404;SDS011;8820;54.604;18.226;2024-01-30T08:28:00;121.10;;;54.40;;
17404;SDS011;8820;54.604;18.226;2024-01-30T08:30:28;77.17;;;34.10;;
17404;SDS011;8820;54.604;18.226;2024-01-30T08:32:56;98.40;;;48.87;;
17404;SDS011;8820;54.604;18.226;2024-01-30T08:35:26;81.03;;;43.60;;
17404;SDS011;8820;54.604;18.226;2024-01-30T08:37:54;61.40;;;39.87;;
17404;SDS011;8820;54.604;18.226;2024-01-30T08:40:23;39.90;;;23.53;;
17404;SDS011;8820;54.604;18.226;2024-01-30T08:42:52;53.67;;;33.60;;
17404;SDS011;8820;54.604;18.226;2024-01-30T08:45:21;45.43;;;29.40;;
17404;SDS011;8820;54.604;18.226;2024-01-30T08:47:49;39.23;;;24.33;;
17404;SDS011;8820;54.604;18.226;2024-01-30T08:50:18;40.33;;;25.47;;
17404;SDS011;8820;54.604;18.226;2024-01-30T08:52:46;38.10;;;22.97;;
17404;SDS011;8820;54.604;18.226;2024-01-30T08:55:15;34.07;;;20.67;;
17404;SDS011;8820;54.604;18.226;2024-01-30T08:57:44;29.20;;;21.17;;
17404;SDS011;8820;54.604;18.226;2024-01-30T09:00:15;31.17;;;20.17;;
17404;SDS011;8820;54.604;18.226;2024-01-30T09:02:43;34.37;;;20.83;;
17404;SDS011;8820;54.604;18.226;2024-01-30T09:05:12;40.17;;;25.40;;
17404;SDS011;8820;54.604;18.226;2024-01-30T09:07:40;36.23;;;24.70;;
17404;SDS011;8820;54.604;18.226;2024-01-30T09:10:09;42.10;;;26.00;;
17404;SDS011;8820;54.604;18.226;2024-01-30T09:12:39;33.57;;;19.33;;
17404;SDS011;8820;54.604;18.226;2024-01-30T09:15:08;26.50;;;17.10;;
17404;SDS011;8820;54.604;18.226;2024-01-30T09:17:38;27.43;;;17.67;;
17404;SDS011;8820;54.604;18.226;2024-01-30T09:20:07;28.70;;;16.83;;
17404;SDS011;8820;54.604;18.226;2024-01-30T09:22:37;24.30;;;17.00;;
17404;SDS011;8820;54.604;18.226;2024-01-30T09:25:05;27.73;;;16.57;;
17404;SDS011;8820;54.604;18.226;2024-01-30T09:27:34;26.30;;;16.17;;
17404;SDS011;8820;54.604;18.226;2024-01-30T09:30:02;27.27;;;17.00;;
17404;SDS011;8820;54.604;18.226;2024-01-30T09:32:31;25.50;;;17.17;;
17404;SDS011;8820;54.604;18.226;2024-01-30T09:35:01;25.50;;;16.30;;
17404;SDS011;8820;54.604;18.226;2024-01-30T09:37:30;29.30;;;18.13;;
17404;SDS011;8820;54.604;18.226;2024-01-30T09:39:58;31.37;;;18.83;;
17404;SDS011;8820;54.604;18.226;2024-01-30T09:42:28;29.53;;;19.27;;
17404;SDS011;8820;54.604;18.226;2024-01-30T09:45:01;30.80;;;18.80;;
17404;SDS011;8820;54.604;18.226;2024-01-30T09:47:30;29.00;;;18.83;;
17404;SDS011;8820;54.604;18.226;2024-01-30T09:50:02;26.20;;;17.43;;
17404;SDS011;8820;54.604;18.226;2024-01-30T09:52:32;32.27;;;16.97;;
17404;SDS011;8820;54.604;18.226;2024-01-30T09:55:01;26.10;;;16.40;;
17404;SDS011;8820;54.604;18.226;2024-01-30T09:57:29;25.30;;;17.13;;
17404;SDS011;8820;54.604;18.226;2024-01-30T09:59:58;26.00;;;16.73;;
17404;SDS011;8820;54.604;18.226;2024-01-30T10:02:26;27.43;;;17.37;;
17404;SDS011;8820;54.604;18.226;2024-01-30T10:04:54;24.43;;;17.07;;
17404;SDS011;8820;54.604;18.226;2024-01-30T10:07:24;24.80;;;17.23;;
17404;SDS011;8820;54.604;18.226;2024-01-30T10:09:52;27.73;;;17.23;;
17404;SDS011;8820;54.604;18.226;2024-01-30T10:12:22;25.93;;;17.97;;
17404;SDS011;8820;54.604;18.226;2024-01-30T10:14:53;28.63;;;17.40;;
17404;SDS011;8820;54.604;18.226;2024-01-30T10:17:25;34.03;;;20.17;;
17404;SDS011;8820;54.604;18.226;2024-01-30T10:19:58;29.97;;;17.90;;
17404;SDS011;8820;54.604;18.226;2024-01-30T10:22:28;32.60;;;17.67;;
17404;SDS011;8820;54.604;18.226;2024-01-30T10:24:56;28.37;;;18.07;;
17404;SDS011;8820;54.604;18.226;2024-01-30T10:27:26;31.43;;;18.33;;
17404;SDS011;8820;54.604;18.226;2024-01-30T10:29:56;31.73;;;18.17;;
17404;SDS011;8820;54.604;18.226;2024-01-30T10:32:27;34.97;;;16.97;;
17404;SDS011;8820;54.604;18.226;2024-01-30T10:34:55;28.20;;;17.07;;
17404;SDS011;8820;54.604;18.226;2024-01-30T10:37:24;29.03;;;18.17;;
17404;SDS011;8820;54.604;18.226;2024-01-30T10:39:55;31.47;;;17.17;;
17404;SDS011;8820;54.604;18.226;2024-01-30T10:42:27;28.33;;;16.20;;
17404;SDS011;8820;54.604;18.226;2024-01-30T10:45:00;28.97;;;17.50;;
17404;SDS011;8820;54.604;18.226;2024-01-30T10:47:35;29.17;;;18.73;;
17404;SDS011;8820;54.604;18.226;2024-01-30T10:50:04;27.97;;;17.03;;
17404;SDS011;8820;54.604;18.226;2024-01-30T10:52:35;27.53;;;18.27;;
17404;SDS011;8820;54.604;18.226;2024-01-30T10:55:05;28.53;;;18.37;;
17404;SDS011;8820;54.604;18.226;2024-01-30T10:57:35;24.30;;;16.70;;
17404;SDS011;8820;54.604;18.226;2024-01-30T11:00:05;33.30;;;17.77;;
17404;SDS011;8820;54.604;18.226;2024-01-30T11:02:37;31.03;;;16.90;;
17404;SDS011;8820;54.604;18.226;2024-01-30T11:05:07;25.40;;;17.03;;
17404;SDS011;8820;54.604;18.226;2024-01-30T11:07:36;29.93;;;17.40;;
17404;SDS011;8820;54.604;18.226;2024-01-30T11:10:11;32.30;;;17.57;;
17404;SDS011;8820;54.604;18.226;2024-01-30T11:12:42;29.10;;;17.63;;
17404;SDS011;8820;54.604;18.226;2024-01-30T11:15:12;27.70;;;18.10;;
17404;SDS011;8820;54.604;18.226;2024-01-30T11:17:44;32.07;;;19.03;;
17404;SDS011;8820;54.604;18.226;2024-01-30T11:20:19;32.43;;;19.17;;
17404;SDS011;8820;54.604;18.226;2024-01-30T11:22:50;36.47;;;20.60;;
17404;SDS011;8820;54.604;18.226;2024-01-30T11:25:21;35.80;;;22.93;;
17404;SDS011;8820;54.604;18.226;2024-01-30T11:27:50;41.50;;;23.13;;
17404;SDS011;8820;54.604;18.226;2024-01-30T11:30:23;37.53;;;23.30;;
17404;SDS011;8820;54.604;18.226;2024-01-30T11:33:01;34.83;;;22.60;;
17404;SDS011;8820;54.604;18.226;2024-01-30T11:35:32;38.60;;;23.43;;
17404;SDS011;8820;54.604;18.226;2024-01-30T11:38:06;36.67;;;23.70;;
17404;SDS011;8820;54.604;18.226;2024-01-30T11:40:37;40.10;;;22.70;;
17404;SDS011;8820;54.604;18.226;2024-01-30T11:43:06;36.57;;;23.67;;
17404;SDS011;8820;54.604;18.226;2024-01-30T11:45:36;45.00;;;26.10;;
17404;SDS011;8820;54.604;18.226;2024-01-30T11:48:06;41.70;;;24.60;;
17404;SDS011;8820;54.604;18.226;2024-01-30T11:50:37;40.83;;;25.97;;
17404;SDS011;8820;54.604;18.226;2024-01-30T11:53:06;42.20;;;26.77;;
17404;SDS011;8820;54.604;18.226;2024-01-30T11:55:34;41.53;;;25.90;;
17404;SDS011;8820;54.604;18.226;2024-01-30T11:58:05;39.17;;;25.47;;
17404;SDS011;8820;54.604;18.226;2024-01-30T12:00:34;35.87;;;24.83;;
17404;SDS011;8820;54.604;18.226;2024-01-30T12:03:02;39.70;;;25.30;;
17404;SDS011;8820;54.604;18.226;2024-01-30T12:05:33;41.13;;;24.93;;
17404;SDS011;8820;54.604;18.226;2024-01-30T12:08:03;34.40;;;24.13;;
17404;SDS011;8820;54.604;18.226;2024-01-30T12:10:32;37.27;;;22.23;;
17404;SDS011;8820;54.604;18.226;2024-01-30T12:13:00;32.47;;;22.60;;
17404;SDS011;8820;54.604;18.226;2024-01-30T12:15:31;33.07;;;21.50;;
17404;SDS011;8820;54.604;18.226;2024-01-30T12:18:06;40.20;;;23.67;;
17404;SDS011;8820;54.604;18.226;2024-01-30T12:20:35;37.23;;;24.40;;
17404;SDS011;8820;54.604;18.226;2024-01-30T12:23:03;34.10;;;22.70;;
17404;SDS011;8820;54.604;18.226;2024-01-30T12:25:32;35.77;;;21.63;;
17404;SDS011;8820;54.604;18.226;2024-01-30T12:28:00;33.10;;;21.30;;
17404;SDS011;8820;54.604;18.226;2024-01-30T12:30:31;31.40;;;20.50;;
17404;SDS011;8820;54.604;18.226;2024-01-30T12:32:59;33.80;;;21.60;;
17404;SDS011;8820;54.604;18.226;2024-01-30T12:35:31;34.90;;;21.30;;
17404;SDS011;8820;54.604;18.226;2024-01-30T12:37:59;34.43;;;20.97;;
17404;SDS011;8820;54.604;18.226;2024-01-30T12:40:27;28.07;;;19.93;;
17404;SDS011;8820;54.604;18.226;2024-01-30T12:42:56;37.63;;;20.27;;
17404;SDS011;8820;54.604;18.226;2024-01-30T12:45:25;36.73;;;20.50;;
17404;SDS011;8820;54.604;18.226;2024-01-30T12:47:54;32.00;;;20.30;;
17404;SDS011;8820;54.604;18.226;2024-01-30T12:50:23;33.63;;;18.60;;
17404;SDS011;8820;54.604;18.226;2024-01-30T12:52:51;31.93;;;19.10;;
17404;SDS011;8820;54.604;18.226;2024-01-30T12:55:19;27.03;;;17.33;;
17404;SDS011;8820;54.604;18.226;2024-01-30T12:57:48;26.57;;;17.40;;
17404;SDS011;8820;54.604;18.226;2024-01-30T13:00:17;27.03;;;16.83;;
17404;SDS011;8820;54.604;18.226;2024-01-30T13:02:45;26.07;;;16.83;;
17404;SDS011;8820;54.604;18.226;2024-01-30T13:05:17;31.13;;;16.00;;
17404;SDS011;8820;54.604;18.226;2024-01-30T13:07:46;23.87;;;16.53;;
17404;SDS011;8820;54.604;18.226;2024-01-30T13:10:14;28.17;;;16.83;;
17404;SDS011;8820;54.604;18.226;2024-01-30T13:12:42;28.90;;;16.80;;
17404;SDS011;8820;54.604;18.226;2024-01-30T13:15:11;30.27;;;18.63;;
17404;SDS011;8820;54.604;18.226;2024-01-30T13:17:39;32.20;;;19.03;;
17404;SDS011;8820;54.604;18.226;2024-01-30T13:20:10;35.07;;;20.87;;
17404;SDS011;8820;54.604;18.226;2024-01-30T13:22:40;36.73;;;20.40;;
17404;SDS011;8820;54.604;18.226;2024-01-30T13:25:11;43.63;;;21.37;;
17404;SDS011;8820;54.604;18.226;2024-01-30T13:27:39;36.20;;;20.83;;
17404;SDS011;8820;54.604;18.226;2024-01-30T13:30:09;32.97;;;23.10;;
17404;SDS011;8820;54.604;18.226;2024-01-30T13:32:37;33.67;;;21.87;;
17404;SDS011;8820;54.604;18.226;2024-01-30T13:35:07;29.10;;;21.00;;
17404;SDS011;8820;54.604;18.226;2024-01-30T13:37:36;32.27;;;21.97;;
17404;SDS011;8820;54.604;18.226;2024-01-30T13:40:06;31.70;;;21.80;;
17404;SDS011;8820;54.604;18.226;2024-01-30T13:42:38;29.27;;;20.50;;
17404;SDS011;8820;54.604;18.226;2024-01-30T13:45:06;29.20;;;18.50;;
17404;SDS011;8820;54.604;18.226;2024-01-30T13:47:37;31.53;;;19.33;;
17404;SDS011;8820;54.604;18.226;2024-01-30T13:50:05;30.53;;;18.10;;
17404;SDS011;8820;54.604;18.226;2024-01-30T13:52:34;28.07;;;18.23;;
17404;SDS011;8820;54.604;18.226;2024-01-30T13:55:08;26.90;;;17.67;;
17404;SDS011;8820;54.604;18.226;2024-01-30T13:57:36;25.87;;;16.63;;
17404;SDS011;8820;54.604;18.226;2024-01-30T14:00:05;30.77;;;18.30;;
17404;SDS011;8820;54.604;18.226;2024-01-30T14:02:40;26.03;;;16.73;;
17404;SDS011;8820;54.604;18.226;2024-01-30T14:05:09;30.70;;;19.80;;
17404;SDS011;8820;54.604;18.226;2024-01-30T14:07:37;33.70;;;19.13;;
17404;SDS011;8820;54.604;18.226;2024-01-30T14:10:09;39.00;;;22.03;;
17404;SDS011;8820;54.604;18.226;2024-01-30T14:12:39;40.13;;;23.10;;
17404;SDS011;8820;54.604;18.226;2024-01-30T14:15:09;42.30;;;25.10;;
17404;SDS011;8820;54.604;18.226;2024-01-30T14:17:41;41.63;;;24.90;;
17404;SDS011;8820;54.604;18.226;2024-01-30T14:20:10;46.97;;;26.73;;
17404;SDS011;8820;54.604;18.226;2024-01-30T14:22:39;46.23;;;28.67;;
17404;SDS011;8820;54.604;18.226;2024-01-30T14:25:09;46.33;;;29.33;;
17404;SDS011;8820;54.604;18.226;2024-01-30T14:27:37;43.77;;;28.17;;
17404;SDS011;8820;54.604;18.226;2024-01-30T14:30:06;46.57;;;29.77;;
17404;SDS011;8820;54.604;18.226;2024-01-30T14:32:38;44.67;;;28.33;;